createdAt,value
2017-08-09T00:01:52.475Z,67.00
2017-08-09T00:04:20.072Z,67.00
2017-08-09T00:06:47.638Z,69.40
2017-08-09T00:09:15.181Z,68.53
2017-08-09T00:11:42.758Z,62.57
2017-08-09T00:14:10.321Z,70.73
2017-08-09T00:16:37.871Z,59.37
2017-08-09T00:19:05.442Z,75.23
2017-08-09T00:21:32.982Z,72.03
2017-08-09T00:24:00.535Z,64.30
2017-08-09T00:26:28.119Z,65.40
2017-08-09T00:28:55.673Z,61.77
2017-08-09T00:31:23.242Z,66.10
2017-08-09T00:33:50.826Z,62.20
2017-08-09T00:36:18.375Z,63.73
2017-08-09T00:38:45.940Z,65.33
2017-08-09T00:41:13.530Z,63.37
2017-08-09T00:43:41.066Z,64.40
2017-08-09T00:46:08.623Z,67.03
2017-08-09T00:48:36.207Z,66.40
2017-08-09T00:51:03.755Z,70.60
2017-08-09T00:53:31.318Z,76.70
2017-08-09T00:55:58.905Z,71.83
2017-08-09T00:58:26.449Z,64.27
2017-08-09T01:00:54.009Z,73.57
2017-08-09T01:03:21.605Z,71.63
2017-08-09T01:05:49.150Z,68.40
2017-08-09T01:08:16.690Z,78.93
2017-08-09T01:10:44.265Z,74.87
2017-08-09T01:13:11.828Z,76.27
2017-08-09T01:15:39.371Z,77.73
2017-08-09T01:18:06.964Z,71.60
2017-08-09T01:20:34.529Z,79.83
2017-08-09T01:23:02.075Z,79.40
2017-08-09T01:25:29.673Z,80.30
2017-08-09T01:27:57.227Z,88.53
2017-08-09T01:30:24.792Z,78.37
2017-08-09T01:32:52.495Z,83.03
2017-08-09T01:35:20.816Z,78.97
2017-08-09T01:37:51.029Z,88.33
2017-08-09T01:40:19.125Z,77.57
2017-08-09T01:42:46.661Z,78.00
2017-08-09T01:45:14.225Z,82.33
2017-08-09T01:47:41.826Z,71.50
2017-08-09T01:50:09.366Z,77.90
2017-08-09T01:52:36.905Z,86.67
2017-08-09T01:55:04.473Z,72.17
2017-08-09T01:57:32.048Z,74.13
2017-08-09T01:59:59.636Z,74.77
2017-08-09T02:02:27.260Z,91.93
2017-08-09T02:04:54.818Z,72.07
2017-08-09T02:07:22.376Z,74.20
2017-08-09T02:09:49.960Z,61.17
2017-08-09T02:12:17.529Z,63.73
2017-08-09T02:14:45.093Z,59.30
2017-08-09T02:17:12.683Z,69.30
2017-08-09T02:19:40.231Z,77.50
2017-08-09T02:22:07.798Z,63.23
2017-08-09T02:24:35.401Z,68.47
2017-08-09T02:27:02.942Z,64.70
2017-08-09T02:29:30.515Z,64.43
2017-08-09T02:31:58.098Z,64.90
2017-08-09T02:34:25.648Z,70.07
2017-08-09T02:36:53.233Z,63.30
2017-08-09T02:39:20.815Z,73.43
2017-08-09T02:41:48.376Z,75.87
2017-08-09T02:44:15.919Z,67.67
2017-08-09T02:46:43.494Z,56.77
2017-08-09T02:49:11.057Z,63.17
2017-08-09T02:51:38.627Z,64.40
2017-08-09T02:54:06.217Z,59.20
2017-08-09T02:56:33.780Z,61.53
2017-08-09T02:59:01.344Z,59.50
2017-08-09T03:01:28.944Z,55.90
2017-08-09T03:03:56.509Z,60.43
2017-08-09T03:06:24.066Z,59.20
2017-08-09T03:08:51.649Z,52.60
2017-08-09T03:11:19.211Z,52.23
2017-08-09T03:13:46.772Z,64.13
2017-08-09T03:16:14.359Z,59.10
2017-08-09T03:18:41.903Z,54.77
2017-08-09T03:21:09.464Z,48.43
2017-08-09T03:23:37.033Z,45.70
2017-08-09T03:26:04.583Z,60.03
2017-08-09T03:28:32.130Z,57.23
2017-08-09T03:30:59.724Z,57.10
2017-08-09T03:33:27.283Z,57.33
2017-08-09T03:35:54.831Z,49.20
2017-08-09T03:38:22.417Z,48.60
2017-08-09T03:40:49.967Z,45.97
2017-08-09T03:43:17.507Z,58.27
2017-08-09T03:45:45.081Z,57.10
2017-08-09T03:48:12.629Z,51.07
2017-08-09T03:50:40.191Z,51.07
2017-08-09T03:53:07.761Z,52.27
2017-08-09T03:55:35.303Z,50.90
2017-08-09T03:58:02.844Z,48.13
2017-08-09T04:00:31.182Z,48.00
2017-08-09T04:02:58.734Z,50.50
2017-08-09T04:05:26.287Z,47.80
2017-08-09T04:07:53.884Z,43.00
2017-08-09T04:10:21.435Z,44.83
2017-08-09T04:12:48.992Z,40.37
2017-08-09T04:15:16.585Z,42.70
2017-08-09T04:17:44.144Z,51.00
2017-08-09T04:20:11.686Z,43.43
2017-08-09T04:22:39.263Z,40.83
2017-08-09T04:25:07.570Z,41.13
2017-08-09T04:27:35.124Z,36.10
2017-08-09T04:30:03.463Z,40.17
2017-08-09T04:32:31.023Z,38.50
2017-08-09T04:34:58.561Z,38.57
2017-08-09T04:37:26.156Z,46.30
2017-08-09T04:39:53.717Z,42.67
2017-08-09T04:42:21.265Z,37.40
2017-08-09T04:44:48.858Z,38.27
2017-08-09T04:47:17.194Z,30.93
2017-08-09T04:49:44.736Z,39.90
2017-08-09T04:52:12.305Z,36.77
2017-08-09T04:54:39.873Z,35.03
2017-08-09T04:57:07.424Z,36.87
2017-08-09T04:59:35.981Z,31.57
2017-08-09T05:02:03.540Z,29.37
2017-08-09T05:04:31.675Z,29.70
2017-08-09T05:06:59.250Z,29.27
2017-08-09T05:09:26.820Z,33.53
2017-08-09T05:11:54.369Z,32.97
2017-08-09T05:14:21.942Z,33.43
2017-08-09T05:16:49.490Z,25.40
2017-08-09T05:19:17.038Z,29.43
2017-08-09T05:21:44.657Z,28.27
2017-08-09T05:24:12.210Z,24.07
2017-08-09T05:26:39.759Z,27.60
2017-08-09T05:29:07.334Z,36.70
2017-08-09T05:31:34.893Z,24.70
2017-08-09T05:34:02.447Z,22.10
2017-08-09T05:36:30.023Z,23.30
2017-08-09T05:38:57.596Z,26.27
2017-08-09T05:41:25.147Z,25.83
2017-08-09T05:43:53.504Z,28.53
2017-08-09T05:46:21.059Z,30.30
2017-08-09T05:48:48.619Z,19.33
2017-08-09T05:51:16.205Z,18.20
2017-08-09T05:53:43.773Z,18.00
2017-08-09T05:56:12.099Z,25.70
2017-08-09T05:58:39.676Z,19.57
2017-08-09T06:01:07.241Z,21.50
2017-08-09T06:03:34.808Z,19.33
2017-08-09T06:06:02.400Z,17.33
2017-08-09T06:08:29.958Z,22.30
2017-08-09T06:10:57.507Z,25.17
2017-08-09T06:13:25.101Z,18.07
2017-08-09T06:15:52.665Z,13.73
2017-08-09T06:18:27.726Z,15.97
2017-08-09T06:20:55.283Z,13.03
2017-08-09T06:23:22.826Z,19.57
2017-08-09T06:25:50.402Z,17.97
2017-08-09T06:28:17.997Z,13.83
2017-08-09T06:30:45.562Z,13.53
2017-08-09T06:33:13.130Z,27.77
2017-08-09T06:35:40.692Z,20.07
2017-08-09T06:38:08.231Z,16.53
2017-08-09T06:40:35.829Z,21.23
2017-08-09T06:43:03.424Z,17.07
2017-08-09T06:45:30.965Z,14.77
2017-08-09T06:47:59.313Z,16.90
2017-08-09T06:50:26.866Z,16.73
2017-08-09T06:52:54.418Z,23.70
2017-08-09T06:55:22.010Z,23.73
2017-08-09T06:57:49.569Z,11.23
2017-08-09T07:00:17.128Z,15.93
2017-08-09T07:02:44.716Z,19.97
2017-08-09T07:05:13.047Z,21.50
2017-08-09T07:07:40.613Z,15.30
2017-08-09T07:10:08.516Z,14.90
2017-08-09T07:12:36.179Z,16.43
2017-08-09T07:15:03.842Z,20.73
2017-08-09T07:17:31.449Z,12.67
2017-08-09T07:19:59.076Z,16.43
2017-08-09T07:22:27.004Z,13.00
2017-08-09T07:24:54.592Z,18.10
2017-08-09T07:27:22.146Z,16.83
2017-08-09T07:29:49.703Z,12.27
2017-08-09T07:32:17.287Z,10.60
2017-08-09T07:34:44.838Z,12.20
2017-08-09T07:37:12.404Z,17.37
2017-08-09T07:39:39.997Z,14.27
2017-08-09T07:42:08.321Z,15.63
2017-08-09T07:44:35.879Z,20.53
2017-08-09T07:47:03.457Z,10.40
2017-08-09T07:49:30.991Z,9.00
2017-08-09T07:51:58.552Z,15.50
2017-08-09T07:54:26.140Z,12.30
2017-08-09T07:56:53.698Z,7.57
2017-08-09T07:59:21.253Z,8.80
2017-08-09T08:01:48.864Z,9.60
2017-08-09T08:04:17.196Z,17.07
2017-08-09T08:06:44.750Z,14.30
2017-08-09T08:09:12.520Z,10.40
2017-08-09T08:11:40.085Z,6.70
2017-08-09T08:14:07.630Z,16.73
2017-08-09T08:16:35.224Z,16.53
2017-08-09T08:19:02.767Z,15.93
2017-08-09T08:21:30.311Z,15.17
2017-08-09T08:23:57.887Z,6.30
2017-08-09T08:26:25.430Z,12.03
2017-08-09T08:28:52.981Z,7.43
2017-08-09T08:31:20.578Z,6.10
2017-08-09T08:33:48.138Z,9.87
2017-08-09T08:36:15.693Z,8.47
2017-08-09T08:38:43.284Z,7.60
2017-08-09T08:41:10.818Z,9.10
2017-08-09T08:43:38.365Z,8.50
2017-08-09T08:46:05.948Z,6.77
2017-08-09T08:48:33.513Z,8.80
2017-08-09T08:51:01.069Z,5.83
2017-08-09T08:53:28.662Z,4.57
2017-08-09T08:55:56.207Z,6.90
2017-08-09T08:58:23.766Z,8.53
2017-08-09T09:00:51.364Z,7.50
2017-08-09T09:03:18.925Z,4.50
2017-08-09T09:05:46.481Z,6.23
2017-08-09T09:08:14.083Z,3.57
2017-08-09T09:10:41.641Z,3.53
2017-08-09T09:13:09.199Z,5.90
2017-08-09T09:15:36.780Z,4.17
2017-08-09T09:18:04.327Z,9.43
2017-08-09T09:20:31.884Z,4.30
2017-08-09T09:22:59.470Z,7.10
2017-08-09T09:25:27.033Z,5.83
2017-08-09T09:27:54.570Z,8.53
2017-08-09T09:30:22.152Z,10.13
2017-08-09T09:32:49.712Z,9.10
2017-08-09T09:35:17.250Z,5.30
2017-08-09T09:37:44.818Z,3.30
2017-08-09T09:40:12.368Z,6.67
2017-08-09T09:42:40.671Z,5.57
2017-08-09T09:45:08.261Z,4.30
2017-08-09T09:47:35.810Z,5.67
2017-08-09T09:50:03.365Z,4.73
2017-08-09T09:52:30.945Z,3.00
2017-08-09T09:54:58.482Z,3.43
2017-08-09T09:57:26.026Z,2.60
2017-08-09T09:59:54.354Z,6.00
2017-08-09T10:02:21.908Z,6.67
2017-08-09T10:04:50.317Z,4.83
2017-08-09T10:07:17.893Z,3.70
2017-08-09T10:09:46.216Z,6.63
2017-08-09T10:12:13.749Z,4.40
2017-08-09T10:14:42.097Z,7.67
2017-08-09T10:17:09.632Z,3.40
2017-08-09T10:19:37.177Z,6.37
2017-08-09T10:22:04.744Z,5.37
2017-08-09T10:24:32.292Z,4.43
2017-08-09T10:26:59.844Z,4.30
2017-08-09T10:29:27.429Z,5.97
2017-08-09T10:31:54.970Z,2.53
2017-08-09T10:34:22.531Z,5.13
2017-08-09T10:36:50.094Z,4.50
2017-08-09T10:39:17.653Z,2.83
2017-08-09T10:41:45.828Z,7.27
2017-08-09T10:44:14.429Z,3.77
2017-08-09T10:46:41.968Z,4.33
2017-08-09T10:49:10.294Z,3.77
2017-08-09T10:51:37.862Z,8.10
2017-08-09T10:54:05.398Z,6.60
2017-08-09T10:56:32.929Z,3.97
2017-08-09T10:59:01.309Z,4.83
2017-08-09T11:01:29.705Z,2.90
2017-08-09T11:03:57.564Z,4.47
2017-08-09T11:06:27.460Z,6.97
2017-08-09T11:08:57.119Z,2.73
2017-08-09T11:11:25.016Z,5.43
2017-08-09T11:13:52.639Z,9.00
2017-08-09T11:16:20.192Z,2.53
2017-08-09T11:22:19.028Z,5.10
2017-08-09T11:24:46.779Z,3.30
2017-08-09T11:27:15.348Z,4.90
2017-08-09T11:29:43.133Z,3.33
2017-08-09T11:32:14.870Z,4.80
2017-08-09T11:34:42.429Z,2.77
2017-08-09T11:37:10.010Z,4.40
2017-08-09T11:39:38.344Z,6.87
2017-08-09T11:42:06.348Z,4.40
2017-08-09T11:44:33.915Z,6.20
2017-08-09T11:47:01.466Z,3.80
2017-08-09T11:49:29.456Z,3.63
2017-08-09T11:51:57.786Z,4.57
2017-08-09T11:54:25.338Z,6.80
2017-08-09T11:56:53.042Z,1.80
2017-08-09T11:59:20.681Z,3.50
2017-08-09T12:01:48.235Z,6.07
2017-08-09T12:04:15.808Z,4.10
2017-08-09T12:06:43.383Z,5.70
2017-08-09T12:09:10.942Z,10.07
2017-08-09T12:11:38.527Z,8.43
2017-08-09T12:14:06.088Z,5.30
2017-08-09T12:16:33.654Z,5.30
2017-08-09T12:19:02.020Z,5.77
2017-08-09T12:21:29.723Z,3.80
2017-08-09T12:23:57.293Z,2.73
2017-08-09T12:26:24.893Z,2.00
2017-08-09T12:28:52.463Z,2.50
2017-08-09T12:31:20.029Z,4.20
2017-08-09T12:33:47.625Z,2.90
2017-08-09T12:36:15.943Z,4.20
2017-08-09T12:38:43.674Z,5.90
2017-08-09T12:41:11.268Z,3.70
2017-08-09T12:43:38.802Z,3.00
2017-08-09T12:46:06.339Z,2.80
2017-08-09T12:48:33.920Z,2.20
2017-08-09T12:51:01.464Z,4.50
2017-08-09T12:53:28.999Z,4.27
2017-08-09T12:55:56.586Z,5.00
2017-08-09T12:58:24.162Z,1.87
2017-08-09T13:00:52.473Z,4.77
2017-08-09T13:03:20.055Z,3.27
2017-08-09T13:05:47.621Z,3.10
2017-08-09T13:08:15.178Z,3.20
2017-08-09T13:10:42.742Z,7.93
2017-08-09T13:13:10.301Z,3.17
2017-08-09T13:15:37.861Z,2.17
2017-08-09T13:18:05.455Z,10.03
2017-08-09T13:20:33.003Z,9.43
2017-08-09T13:23:00.552Z,3.23
2017-08-09T13:25:28.126Z,5.33
2017-08-09T13:27:55.673Z,9.23
2017-08-09T13:30:23.219Z,2.33
2017-08-09T13:32:50.779Z,9.87
2017-08-09T13:35:18.317Z,16.50
2017-08-09T13:37:46.634Z,3.73
2017-08-09T13:40:14.212Z,4.83
2017-08-09T13:42:41.748Z,5.17
2017-08-09T13:45:09.308Z,3.33
2017-08-09T13:47:36.907Z,7.17
2017-08-09T13:50:04.459Z,8.17
2017-08-09T13:52:32.042Z,5.60
2017-08-09T13:55:00.398Z,4.13
2017-08-09T13:57:27.954Z,4.17
2017-08-09T13:59:55.498Z,3.60
2017-08-09T14:02:23.145Z,3.70
2017-08-09T14:04:50.721Z,6.97
2017-08-09T14:07:18.272Z,2.60
2017-08-09T14:09:45.860Z,3.97
2017-08-09T14:12:13.419Z,3.30
2017-08-09T14:14:40.956Z,3.80
2017-08-09T14:17:08.647Z,5.43
2017-08-09T14:19:36.179Z,5.33
2017-08-09T14:22:03.719Z,5.80
2017-08-09T14:24:32.067Z,4.77
2017-08-09T14:26:59.614Z,3.87
2017-08-09T14:29:27.157Z,3.27
2017-08-09T14:31:54.779Z,4.80
2017-08-09T14:34:22.325Z,2.60
2017-08-09T14:36:49.873Z,3.53
2017-08-09T14:39:17.478Z,9.30
2017-08-09T14:41:45.799Z,3.40
2017-08-09T14:44:13.355Z,11.83
2017-08-09T14:46:40.941Z,4.53
2017-08-09T14:49:08.497Z,2.53
2017-08-09T14:51:36.075Z,5.00
2017-08-09T14:54:03.653Z,6.67
2017-08-09T14:56:31.200Z,7.00
2017-08-09T14:58:58.730Z,3.03
2017-08-09T15:01:26.348Z,14.47
2017-08-09T15:03:54.671Z,9.77
2017-08-09T15:06:22.211Z,3.00
2017-08-09T15:08:49.900Z,2.50
2017-08-09T15:11:17.435Z,2.73
2017-08-09T15:13:44.972Z,3.20
2017-08-09T15:16:13.301Z,3.30
2017-08-09T15:18:40.972Z,10.27
2017-08-09T15:21:08.508Z,4.83
2017-08-09T15:23:36.102Z,6.30
2017-08-09T15:26:03.665Z,4.43
2017-08-09T15:28:31.219Z,3.80
2017-08-09T15:30:58.791Z,5.63
2017-08-09T15:33:26.345Z,2.27
2017-08-09T15:35:53.882Z,3.77
2017-08-09T15:38:21.459Z,7.07
2017-08-09T15:40:49.008Z,12.83
2017-08-09T15:43:16.571Z,6.23
2017-08-09T15:45:46.748Z,4.07
2017-08-09T15:48:14.285Z,4.60
2017-08-09T15:50:41.833Z,2.20
2017-08-09T15:53:09.412Z,6.13
2017-08-09T15:55:36.947Z,2.67
2017-08-09T15:58:04.506Z,2.30
2017-08-09T16:00:32.107Z,4.53
2017-08-09T16:02:59.639Z,2.87
2017-08-09T16:05:27.222Z,4.37
2017-08-09T16:07:54.805Z,6.43
2017-08-09T16:10:22.361Z,8.80
2017-08-09T16:12:49.942Z,3.93
2017-08-09T16:15:18.288Z,4.10
2017-08-09T16:17:45.823Z,11.37
2017-08-09T16:20:13.675Z,3.47
2017-08-09T16:22:41.243Z,8.00
2017-08-09T16:25:11.559Z,4.27
2017-08-09T16:27:39.106Z,4.93
2017-08-09T16:30:07.454Z,4.87
2017-08-09T16:32:35.012Z,5.40
2017-08-09T16:35:02.558Z,8.33
2017-08-09T16:37:30.149Z,8.27
2017-08-09T16:39:57.691Z,5.40
2017-08-09T16:42:25.478Z,6.70
2017-08-09T16:44:53.074Z,4.57
2017-08-09T16:47:21.081Z,5.60
2017-08-09T16:49:48.714Z,3.90
2017-08-09T16:52:16.286Z,6.53
2017-08-09T16:54:43.860Z,4.07
2017-08-09T16:57:11.405Z,7.77
2017-08-09T16:59:38.978Z,4.93
2017-08-09T17:02:06.534Z,2.07
2017-08-09T17:04:34.109Z,11.03
2017-08-09T17:07:01.698Z,5.10
2017-08-09T17:09:29.245Z,4.07
2017-08-09T17:11:56.783Z,8.10
2017-08-09T17:14:24.363Z,5.60
2017-08-09T17:16:51.904Z,12.13
2017-08-09T17:19:19.458Z,4.97
2017-08-09T17:21:47.052Z,5.23
2017-08-09T17:24:14.613Z,5.60
2017-08-09T17:26:42.167Z,3.07
2017-08-09T17:29:12.652Z,3.83
2017-08-09T17:31:42.391Z,6.63
2017-08-09T17:34:09.997Z,4.33
2017-08-09T17:36:37.536Z,4.00
2017-08-09T17:39:05.074Z,7.50
2017-08-09T17:41:32.687Z,4.50
2017-08-09T17:44:00.257Z,3.23
2017-08-09T17:46:27.809Z,3.73
2017-08-09T17:48:55.390Z,8.43
2017-08-09T17:51:22.923Z,5.20
2017-08-09T17:53:50.468Z,10.00
2017-08-09T17:56:18.065Z,7.03
2017-08-09T17:58:45.599Z,5.43
2017-08-09T18:01:13.140Z,7.70
2017-08-09T18:03:40.783Z,7.37
2017-08-09T18:06:09.102Z,6.00
2017-08-09T18:08:36.657Z,3.77
2017-08-09T18:11:04.246Z,2.43
2017-08-09T18:13:31.808Z,9.13
2017-08-09T18:15:59.404Z,4.20
2017-08-09T18:18:27.753Z,4.90
2017-08-09T18:20:55.295Z,1.93
2017-08-09T18:23:22.851Z,6.93
2017-08-09T18:25:50.465Z,4.53
2017-08-09T18:28:18.978Z,9.23
2017-08-09T18:30:46.532Z,4.00
2017-08-09T18:33:14.113Z,5.93
2017-08-09T18:35:41.727Z,3.23
2017-08-09T18:38:09.295Z,7.20
2017-08-09T18:40:36.910Z,10.17
2017-08-09T18:43:05.917Z,5.67
2017-08-09T18:45:33.566Z,3.80
2017-08-09T18:48:01.205Z,6.60
2017-08-09T18:50:34.169Z,5.23
2017-08-09T18:53:01.992Z,4.80
2017-08-09T18:55:29.544Z,10.93
2017-08-09T18:57:57.178Z,5.83
2017-08-09T19:00:28.292Z,3.13
2017-08-09T19:02:55.895Z,4.10
2017-08-09T19:05:23.431Z,2.57
2017-08-09T19:07:51.534Z,4.30
2017-08-09T19:10:19.074Z,5.07
2017-08-09T19:12:47.401Z,7.97
2017-08-09T19:15:15.843Z,3.20
2017-08-09T19:17:43.403Z,16.73
2017-08-09T19:20:11.733Z,15.03
2017-08-09T19:22:39.301Z,8.07
2017-08-09T19:25:06.899Z,10.17
2017-08-09T19:27:34.495Z,5.60
2017-08-09T19:30:03.412Z,8.20
2017-08-09T19:32:30.984Z,7.20
2017-08-09T19:34:58.530Z,13.93
2017-08-09T19:37:26.124Z,11.70
2017-08-09T19:39:53.710Z,19.10
2017-08-09T19:42:21.282Z,9.80
2017-08-09T19:44:49.627Z,5.67
2017-08-09T19:47:17.345Z,11.00
2017-08-09T19:49:44.880Z,6.50
2017-08-09T19:52:13.224Z,12.00
2017-08-09T19:54:40.774Z,7.70
2017-08-09T19:57:08.433Z,8.50
2017-08-09T19:59:36.684Z,7.67
2017-08-09T20:02:04.762Z,13.53
2017-08-09T20:04:32.359Z,15.53
2017-08-09T20:07:02.163Z,9.50
2017-08-09T20:09:29.782Z,11.90
2017-08-09T20:11:58.269Z,6.70
2017-08-09T20:14:25.874Z,9.30
2017-08-09T20:16:53.414Z,12.43
2017-08-09T20:19:21.118Z,10.73
2017-08-09T20:21:48.950Z,11.47
2017-08-09T20:24:16.516Z,15.53
2017-08-09T20:26:44.059Z,9.60
2017-08-09T20:29:11.653Z,10.00
2017-08-09T20:31:39.220Z,13.87
2017-08-09T20:34:06.767Z,16.53
2017-08-09T20:36:34.349Z,7.93
2017-08-09T20:39:01.898Z,10.93
2017-08-09T20:41:29.457Z,9.67
2017-08-09T20:43:57.021Z,9.03
2017-08-09T20:46:24.582Z,8.73
2017-08-09T20:48:52.111Z,9.93
2017-08-09T20:51:19.696Z,8.13
2017-08-09T20:53:47.235Z,11.97
2017-08-09T20:56:14.783Z,14.20
2017-08-09T20:58:43.136Z,13.53
2017-08-09T21:01:10.696Z,11.80
2017-08-09T21:03:38.229Z,10.93
2017-08-09T21:06:05.821Z,11.03
2017-08-09T21:08:33.358Z,8.77
2017-08-09T21:11:00.898Z,12.10
2017-08-09T21:13:28.490Z,11.80
2017-08-09T21:15:56.047Z,11.00
2017-08-09T21:18:23.585Z,11.80
2017-08-09T21:20:51.146Z,6.33
2017-08-09T21:23:18.694Z,10.93
2017-08-09T21:25:46.261Z,6.57
2017-08-09T21:28:13.864Z,8.20
2017-08-09T21:30:41.403Z,7.00
2017-08-09T21:33:08.934Z,6.70
2017-08-09T21:35:36.510Z,16.83
2017-08-09T21:38:04.068Z,6.30
2017-08-09T21:40:31.630Z,9.07
2017-08-09T21:42:59.198Z,6.80
2017-08-09T21:45:26.730Z,8.63
2017-08-09T21:47:55.052Z,9.50
2017-08-09T21:50:22.951Z,7.50
2017-08-09T21:52:50.556Z,8.00
2017-08-09T21:55:18.132Z,12.03
2017-08-09T21:57:45.711Z,8.73
2017-08-09T22:00:13.254Z,7.27
2017-08-09T22:02:40.808Z,6.40
2017-08-09T22:05:09.151Z,5.53
2017-08-09T22:07:36.705Z,7.33
2017-08-09T22:10:04.244Z,6.30
2017-08-09T22:12:31.818Z,9.00
2017-08-09T22:14:59.357Z,7.40
2017-08-09T22:17:26.906Z,8.03
2017-08-09T22:19:54.492Z,8.93
2017-08-09T22:22:22.041Z,12.73
2017-08-09T22:24:49.582Z,13.03
2017-08-09T22:27:17.158Z,12.80
2017-08-09T22:29:44.705Z,17.77
2017-08-09T22:32:12.270Z,12.63
2017-08-09T22:34:39.857Z,7.83
2017-08-09T22:37:07.405Z,14.60
2017-08-09T22:39:34.952Z,8.50
2017-08-09T22:42:02.540Z,6.43
2017-08-09T22:44:30.110Z,12.80
2017-08-09T22:46:57.671Z,12.47
2017-08-09T22:49:25.242Z,8.50
2017-08-09T22:51:52.800Z,11.53
2017-08-09T22:54:20.355Z,7.27
2017-08-09T22:56:47.945Z,9.50
2017-08-09T22:59:15.494Z,7.23
2017-08-09T23:01:43.146Z,11.27
2017-08-09T23:04:10.732Z,9.40
2017-08-09T23:06:38.289Z,14.83
2017-08-09T23:09:06.120Z,10.23
2017-08-09T23:11:33.770Z,7.87
2017-08-09T23:14:01.316Z,11.63
2017-08-09T23:16:28.860Z,9.23
2017-08-09T23:18:56.436Z,14.57
2017-08-09T23:21:23.983Z,11.40
2017-08-09T23:23:51.525Z,12.23
2017-08-09T23:26:19.116Z,8.83
2017-08-09T23:28:47.430Z,12.57
2017-08-09T23:31:14.970Z,8.30
2017-08-09T23:33:43.304Z,7.87
2017-08-09T23:36:10.875Z,7.97
2017-08-09T23:38:38.410Z,8.50
2017-08-09T23:41:05.994Z,10.47
2017-08-09T23:43:33.537Z,7.93
2017-08-09T23:46:01.094Z,6.87
2017-08-09T23:48:28.684Z,6.93
2017-08-09T23:50:56.222Z,8.97
2017-08-09T23:53:23.785Z,8.40
2017-08-09T23:55:51.557Z,6.13
2017-08-09T23:58:19.382Z,14.07
